createdAt,value
2023-03-06T00:02:59.138Z,24.04
2023-03-06T00:08:06.367Z,23.93
2023-03-06T00:13:13.607Z,24.03
2023-03-06T00:18:20.753Z,23.87
2023-03-06T00:23:28.016Z,24.10
2023-03-06T00:28:35.320Z,24.09
2023-03-06T00:33:42.917Z,23.96
2023-03-06T00:39:02.146Z,23.90
2023-03-06T00:44:40.154Z,23.77
2023-03-06T00:49:56.745Z,23.74
2023-03-06T00:55:43.960Z,23.72
2023-03-06T01:00:51.618Z,23.77
2023-03-06T01:06:07.524Z,23.84
2023-03-06T01:11:15.276Z,23.94
2023-03-06T01:16:22.902Z,24.10
2023-03-06T01:21:30.049Z,24.16
2023-03-06T01:26:37.283Z,24.27
2023-03-06T01:31:44.548Z,24.35
2023-03-06T01:36:51.693Z,24.47
2023-03-06T01:41:58.839Z,24.57
2023-03-06T01:47:06.043Z,24.70
2023-03-06T01:52:13.247Z,24.77
2023-03-06T01:57:20.397Z,24.86
2023-03-06T02:02:27.640Z,24.91
2023-03-06T02:07:34.782Z,24.98
2023-03-06T02:12:41.996Z,25.03
2023-03-06T02:17:49.264Z,25.07
2023-03-06T02:22:56.466Z,25.15
2023-03-06T02:28:03.718Z,25.27
2023-03-06T02:33:10.909Z,25.38
2023-03-06T02:38:18.239Z,25.51
2023-03-06T02:43:25.575Z,25.52
2023-03-06T02:48:32.968Z,25.65
2023-03-06T02:53:40.279Z,25.67
2023-03-06T02:58:47.826Z,25.79
2023-03-06T03:03:59.550Z,25.76
2023-03-06T03:09:07.024Z,25.80
2023-03-06T03:14:14.471Z,25.89
2023-03-06T03:19:29.074Z,25.93
2023-03-06T03:24:36.683Z,25.86
2023-03-06T03:29:49.320Z,25.86
2023-03-06T03:35:05.627Z,25.97
2023-03-06T03:40:23.167Z,25.89
2023-03-06T03:46:26.338Z,25.92
2023-03-06T03:51:45.914Z,26.02
2023-03-06T03:57:08.776Z,26.08
2023-03-06T04:02:22.920Z,26.10
2023-03-06T04:07:51.639Z,26.16
2023-03-06T04:13:34.693Z,26.21
2023-03-06T04:18:50.871Z,26.22
2023-03-06T04:24:09.037Z,26.27
2023-03-06T04:29:11.390Z,26.24
2023-03-06T04:34:18.869Z,26.31
2023-03-06T04:39:44.216Z,26.39
2023-03-06T04:44:39.628Z,26.44
2023-03-06T04:49:47.079Z,26.44
2023-03-06T04:54:54.363Z,26.48
2023-03-06T05:00:01.764Z,26.48
2023-03-06T05:05:09.345Z,26.51
2023-03-06T05:10:25.736Z,26.48
2023-03-06T05:15:32.930Z,26.43
2023-03-06T05:20:46.786Z,26.33
2023-03-06T05:25:54.351Z,26.25
2023-03-06T05:31:03.372Z,26.18
2023-03-06T05:36:09.096Z,26.12
2023-03-06T05:41:16.494Z,26.09
2023-03-06T05:46:23.882Z,26.14
2023-03-06T05:51:31.356Z,26.15
2023-03-06T05:56:44.986Z,26.27
2023-03-06T06:01:56.066Z,26.29
2023-03-06T06:07:03.365Z,26.31
2023-03-06T06:12:10.774Z,26.34
2023-03-06T06:17:21.770Z,26.42
2023-03-06T06:22:37.317Z,26.49
2023-03-06T06:27:53.369Z,26.54
2023-03-06T06:33:01.716Z,26.58
2023-03-06T06:38:12.700Z,26.62
2023-03-06T06:43:18.954Z,26.46
2023-03-06T06:48:33.512Z,26.35
2023-03-06T06:53:45.738Z,26.22
2023-03-06T06:58:53.053Z,26.15
2023-03-06T07:04:25.059Z,26.13
2023-03-06T07:09:13.397Z,26.16
2023-03-06T07:14:23.780Z,26.14
2023-03-06T07:19:35.731Z,26.09
2023-03-06T07:24:52.232Z,26.10
2023-03-06T07:29:58.717Z,26.11
2023-03-06T07:35:19.697Z,26.09
2023-03-06T07:40:14.333Z,26.06
2023-03-06T07:45:22.681Z,26.10
2023-03-06T07:50:33.059Z,26.15
2023-03-06T07:55:39.515Z,26.35
2023-03-06T08:00:56.344Z,26.51
2023-03-06T08:05:59.937Z,26.52
2023-03-06T08:11:07.291Z,26.53
2023-03-06T08:16:15.239Z,26.27
2023-03-06T08:21:22.780Z,26.45
2023-03-06T08:26:30.099Z,26.63
2023-03-06T08:31:37.703Z,26.49
2023-03-06T08:36:44.823Z,26.34
2023-03-06T08:41:52.332Z,26.13
2023-03-06T08:47:00.002Z,26.47
2023-03-06T08:52:22.653Z,26.41
2023-03-06T08:57:29.989Z,26.31
2023-03-06T09:02:37.608Z,26.25
2023-03-06T09:07:44.897Z,26.13
2023-03-06T09:12:55.206Z,26.08
2023-03-06T09:18:02.278Z,26.02
2023-03-06T09:23:09.633Z,25.97
2023-03-06T09:28:17.095Z,25.93
2023-03-06T09:33:24.652Z,25.93
2023-03-06T09:38:33.773Z,25.94
2023-03-06T09:43:41.385Z,25.97
2023-03-06T09:48:49.012Z,25.96
2023-03-06T09:53:56.309Z,25.93
2023-03-06T09:59:03.659Z,25.99
2023-03-06T10:04:13.498Z,26.10
2023-03-06T10:09:19.865Z,26.09
2023-03-06T10:14:27.401Z,26.11
2023-03-06T10:19:34.740Z,26.15
2023-03-06T10:24:42.329Z,26.15
2023-03-06T10:30:01.643Z,26.26
2023-03-06T10:34:57.320Z,26.26
2023-03-06T10:40:04.670Z,26.24
2023-03-06T10:45:12.168Z,26.24
2023-03-06T10:50:19.799Z,26.16
2023-03-06T10:55:27.270Z,26.12
2023-03-06T11:00:34.942Z,26.08
2023-03-06T11:05:42.598Z,25.91
2023-03-06T11:11:36.686Z,25.92
2023-03-06T11:17:51.363Z,25.95
2023-03-06T11:22:06.656Z,25.92
2023-03-06T11:27:33.226Z,25.99
2023-03-06T11:32:58.474Z,26.02
2023-03-06T11:37:53.890Z,26.18
2023-03-06T11:48:53.292Z,26.36
2023-03-06T11:54:03.888Z,26.40
2023-03-06T11:59:16.107Z,26.38
2023-03-06T12:04:23.492Z,26.42
2023-03-06T12:09:30.881Z,26.47
2023-03-06T12:14:38.398Z,26.50
2023-03-06T12:19:45.900Z,26.52
2023-03-06T12:24:53.564Z,26.51
2023-03-06T12:30:00.842Z,26.47
2023-03-06T12:35:11.268Z,26.37
2023-03-06T12:40:18.888Z,26.34
2023-03-06T12:45:41.159Z,26.31
2023-03-06T12:50:48.758Z,26.32
2023-03-06T12:56:11.061Z,26.36
2023-03-06T13:01:33.332Z,26.39
2023-03-06T13:06:50.853Z,26.42
2023-03-06T13:11:52.022Z,26.49
2023-03-06T13:17:03.465Z,26.54
2023-03-06T13:22:11.101Z,26.61
2023-03-06T13:27:19.864Z,26.71
2023-03-06T13:32:27.404Z,26.79
2023-03-06T13:37:42.440Z,26.79
2023-03-06T13:42:53.752Z,26.83
2023-03-06T13:53:14.702Z,26.92
2023-03-06T13:58:20.189Z,26.97
2023-03-06T14:03:27.531Z,26.98
2023-03-06T14:08:35.289Z,27.01
2023-03-06T14:13:47.367Z,27.00
2023-03-06T14:18:50.081Z,26.96
2023-03-06T14:24:00.065Z,26.95
2023-03-06T14:29:05.061Z,26.96
2023-03-06T14:34:13.602Z,26.92
2023-03-06T14:39:21.243Z,26.92
2023-03-06T14:44:28.532Z,26.97
2023-03-06T14:49:35.848Z,26.99
2023-03-06T14:54:43.171Z,27.02
2023-03-06T14:59:51.696Z,27.08
2023-03-06T15:04:59.035Z,27.12
2023-03-06T15:10:06.438Z,27.16
2023-03-06T15:15:13.882Z,27.20
2023-03-06T15:20:21.185Z,27.23
2023-03-06T15:25:28.705Z,27.28
2023-03-06T15:30:36.030Z,27.33
2023-03-06T15:35:43.760Z,27.39
2023-03-06T15:40:51.212Z,27.42
2023-03-06T15:45:59.647Z,27.41
2023-03-06T15:51:06.698Z,27.43
2023-03-06T15:56:14.056Z,27.42
2023-03-06T16:01:21.575Z,27.41
2023-03-06T16:06:29.105Z,27.41
2023-03-06T16:11:43.970Z,27.35
2023-03-06T16:16:50.484Z,27.38
2023-03-06T16:21:57.738Z,27.37
2023-03-06T16:27:05.363Z,27.38
2023-03-06T16:32:12.784Z,27.41
2023-03-06T16:37:23.163Z,27.44
2023-03-06T16:42:30.652Z,27.50
2023-03-06T16:47:38.488Z,27.50
2023-03-06T16:52:46.093Z,27.55
2023-03-06T16:57:53.814Z,27.60
2023-03-06T17:03:01.559Z,27.62
2023-03-06T17:08:09.087Z,27.65
2023-03-06T17:13:16.892Z,27.73
2023-03-06T17:18:24.463Z,27.73
2023-03-06T17:23:31.802Z,27.77
2023-03-06T17:28:39.444Z,27.75
2023-03-06T17:33:47.106Z,27.72
2023-03-06T17:38:54.888Z,27.81
2023-03-06T17:44:02.766Z,27.62
2023-03-06T17:49:10.754Z,27.52
2023-03-06T17:54:18.005Z,27.39
2023-03-06T17:59:30.529Z,27.33
2023-03-06T18:04:38.627Z,27.25
2023-03-06T18:09:46.308Z,27.18
2023-03-06T18:14:54.014Z,27.11
2023-03-06T18:20:04.502Z,27.06
2023-03-06T18:25:12.057Z,26.99
2023-03-06T18:30:19.712Z,26.95
2023-03-06T18:35:27.369Z,26.90
2023-03-06T18:40:35.045Z,27.18
2023-03-06T18:45:42.683Z,27.46
2023-03-06T18:50:50.291Z,27.76
2023-03-06T18:55:57.989Z,27.97
2023-03-06T19:01:05.626Z,27.57
2023-03-06T19:06:13.353Z,27.59
2023-03-06T19:11:20.830Z,27.73
2023-03-06T19:16:28.605Z,28.20
2023-03-06T19:21:36.191Z,27.88
2023-03-06T19:26:43.890Z,27.53
2023-03-06T19:31:51.548Z,27.49
2023-03-06T19:36:59.060Z,27.38
2023-03-06T19:42:07.603Z,27.17
2023-03-06T19:47:15.325Z,27.17
2023-03-06T19:52:23.018Z,26.81
2023-03-06T19:57:30.593Z,27.22
2023-03-06T20:02:38.317Z,27.08
2023-03-06T20:07:46.012Z,26.96
2023-03-06T20:12:53.645Z,27.11
2023-03-06T20:18:01.351Z,26.78
2023-03-06T20:23:09.046Z,27.05
2023-03-06T20:28:16.612Z,26.75
2023-03-06T20:33:24.294Z,26.88
2023-03-06T20:38:32.046Z,26.86
2023-03-06T20:43:39.373Z,26.84
2023-03-06T20:48:46.938Z,26.86
2023-03-06T20:53:54.575Z,26.76
2023-03-06T20:59:02.276Z,26.62
2023-03-06T21:04:09.886Z,26.49
2023-03-06T21:09:17.232Z,26.38
2023-03-06T21:14:24.400Z,26.96
2023-03-06T21:19:31.685Z,26.63
2023-03-06T21:24:39.145Z,27.02
2023-03-06T21:29:46.456Z,27.18
2023-03-06T21:34:53.655Z,27.42
2023-03-06T21:40:00.940Z,27.50
2023-03-06T21:45:08.098Z,27.27
2023-03-06T21:50:15.292Z,27.21
2023-03-06T21:55:22.491Z,27.53
2023-03-06T22:00:29.673Z,26.83
2023-03-06T22:05:36.857Z,26.77
2023-03-06T22:10:44.354Z,26.58
2023-03-06T22:15:51.502Z,26.87
2023-03-06T22:20:58.716Z,26.82
2023-03-06T22:26:05.915Z,26.71
2023-03-06T22:31:13.061Z,26.67
2023-03-06T22:36:20.245Z,26.63
2023-03-06T22:41:27.463Z,26.62
2023-03-06T22:46:34.703Z,26.38
2023-03-06T22:51:41.900Z,26.60
2023-03-06T22:56:49.110Z,26.50
2023-03-06T23:01:56.352Z,26.54
2023-03-06T23:07:03.554Z,26.52
2023-03-06T23:12:10.786Z,26.45
2023-03-06T23:17:17.961Z,26.60
2023-03-06T23:22:25.236Z,26.39
2023-03-06T23:27:32.506Z,26.38
2023-03-06T23:32:39.799Z,26.42
2023-03-06T23:37:46.994Z,26.34
2023-03-06T23:42:54.314Z,26.48
2023-03-06T23:48:01.550Z,26.70
2023-03-06T23:53:18.648Z,26.54
2023-03-06T23:58:41.097Z,26.16
